sensor_id;sensor_type;location;lat;lon;timestamp;temperature;humidity
21216;DHT22;10765;50.954;5.322;2022-09-20T00:01:06;12.90;1.00
21216;DHT22;10765;50.954;5.322;2022-09-20T00:03:34;12.80;1.00
21216;DHT22;10765;50.954;5.322;2022-09-20T00:06:03;12.70;1.00
21216;DHT22;10765;50.954;5.322;2022-09-20T00:08:30;12.70;99.90
21216;DHT22;10765;50.954;5.322;2022-09-20T00:10:58;12.70;1.00
21216;DHT22;10765;50.954;5.322;2022-09-20T00:13:27;12.70;1.00
21216;DHT22;10765;50.954;5.322;2022-09-20T00:15:55;12.80;1.00
21216;DHT22;10765;50.954;5.322;2022-09-20T00:18:22;12.70;1.00
21216;DHT22;10765;50.954;5.322;2022-09-20T00:20:50;12.50;99.90
21216;DHT22;10765;50.954;5.322;2022-09-20T00:23:17;12.40;99.90
21216;DHT22;10765;50.954;5.322;2022-09-20T00:25:44;12.40;99.90
21216;DHT22;10765;50.954;5.322;2022-09-20T00:28:11;12.30;99.90
21216;DHT22;10765;50.954;5.322;2022-09-20T00:30:38;12.20;1.00
21216;DHT22;10765;50.954;5.322;2022-09-20T00:33:06;12.20;1.00
21216;DHT22;10765;50.954;5.322;2022-09-20T00:35:33;12.20;92.80
21216;DHT22;10765;50.954;5.322;2022-09-20T00:37:59;12.50;99.90
21216;DHT22;10765;50.954;5.322;2022-09-20T00:40:26;12.50;1.00
21216;DHT22;10765;50.954;5.322;2022-09-20T00:42:53;12.60;99.90
21216;DHT22;10765;50.954;5.322;2022-09-20T00:45:21;12.70;1.00
21216;DHT22;10765;50.954;5.322;2022-09-20T00:47:52;12.70;1.00
21216;DHT22;10765;50.954;5.322;2022-09-20T00:50:28;12.60;1.00
21216;DHT22;10765;50.954;5.322;2022-09-20T00:53:01;12.50;99.90
21216;DHT22;10765;50.954;5.322;2022-09-20T00:55:29;12.50;1.00
21216;DHT22;10765;50.954;5.322;2022-09-20T00:57:57;12.50;50.60
21216;DHT22;10765;50.954;5.322;2022-09-20T01:00:25;12.50;99.90
21216;DHT22;10765;50.954;5.322;2022-09-20T01:02:56;12.50;1.00
21216;DHT22;10765;50.954;5.322;2022-09-20T01:05:26;12.40;1.00
21216;DHT22;10765;50.954;5.322;2022-09-20T01:07:53;12.40;1.00
21216;DHT22;10765;50.954;5.322;2022-09-20T01:10:21;12.30;1.00
21216;DHT22;10765;50.954;5.322;2022-09-20T01:12:50;12.30;1.00
21216;DHT22;10765;50.954;5.322;2022-09-20T01:15:19;12.30;99.90
21216;DHT22;10765;50.954;5.322;2022-09-20T01:17:51;12.10;1.00
21216;DHT22;10765;50.954;5.322;2022-09-20T01:20:22;12.00;1.00
21216;DHT22;10765;50.954;5.322;2022-09-20T01:23:05;12.00;1.00
21216;DHT22;10765;50.954;5.322;2022-09-20T01:28:31;11.90;45.50
21216;DHT22;10765;50.954;5.322;2022-09-20T01:31:03;12.00;1.00
21216;DHT22;10765;50.954;5.322;2022-09-20T01:33:40;12.20;99.90
21216;DHT22;10765;50.954;5.322;2022-09-20T01:36:14;12.20;1.00
21216;DHT22;10765;50.954;5.322;2022-09-20T01:38:47;12.10;1.00
21216;DHT22;10765;50.954;5.322;2022-09-20T01:41:22;12.20;1.00
21216;DHT22;10765;50.954;5.322;2022-09-20T01:43:52;12.40;99.90
21216;DHT22;10765;50.954;5.322;2022-09-20T01:46:28;12.50;1.00
21216;DHT22;10765;50.954;5.322;2022-09-20T01:49:09;12.50;99.90
21216;DHT22;10765;50.954;5.322;2022-09-20T01:52:13;12.60;1.00
21216;DHT22;10765;50.954;5.322;2022-09-20T01:55:18;12.50;99.90
21216;DHT22;10765;50.954;5.322;2022-09-20T02:01:25;12.40;1.00
21216;DHT22;10765;50.954;5.322;2022-09-20T02:04:21;12.30;1.00
21216;DHT22;10765;50.954;5.322;2022-09-20T02:07:08;12.20;99.90
21216;DHT22;10765;50.954;5.322;2022-09-20T02:09:54;12.20;99.90
21216;DHT22;10765;50.954;5.322;2022-09-20T02:12:43;12.20;99.90
21216;DHT22;10765;50.954;5.322;2022-09-20T02:15:34;12.10;99.90
21216;DHT22;10765;50.954;5.322;2022-09-20T02:18:19;12.00;1.00
21216;DHT22;10765;50.954;5.322;2022-09-20T02:20:57;11.90;1.00
21216;DHT22;10765;50.954;5.322;2022-09-20T02:23:34;11.90;1.00
21216;DHT22;10765;50.954;5.322;2022-09-20T02:26:10;11.90;1.00
21216;DHT22;10765;50.954;5.322;2022-09-20T02:28:52;11.80;1.00
21216;DHT22;10765;50.954;5.322;2022-09-20T02:31:37;11.90;1.00
21216;DHT22;10765;50.954;5.322;2022-09-20T02:37:20;12.00;1.00
21216;DHT22;10765;50.954;5.322;2022-09-20T02:40:04;11.90;1.00
21216;DHT22;10765;50.954;5.322;2022-09-20T02:42:39;11.90;1.00
21216;DHT22;10765;50.954;5.322;2022-09-20T02:45:17;11.90;1.00
21216;DHT22;10765;50.954;5.322;2022-09-20T02:47:46;11.90;1.00
21216;DHT22;10765;50.954;5.322;2022-09-20T02:50:25;12.00;1.00
21216;DHT22;10765;50.954;5.322;2022-09-20T02:53:05;12.00;1.00
21216;DHT22;10765;50.954;5.322;2022-09-20T02:55:40;12.00;99.90
21216;DHT22;10765;50.954;5.322;2022-09-20T02:58:22;12.10;1.00
21216;DHT22;10765;50.954;5.322;2022-09-20T03:00:53;12.00;99.90
21216;DHT22;10765;50.954;5.322;2022-09-20T03:03:36;12.00;99.90
21216;DHT22;10765;50.954;5.322;2022-09-20T03:06:11;12.00;1.00
21216;DHT22;10765;50.954;5.322;2022-09-20T03:08:48;12.00;1.00
21216;DHT22;10765;50.954;5.322;2022-09-20T03:11:25;12.00;99.90
21216;DHT22;10765;50.954;5.322;2022-09-20T03:14:09;12.10;1.00
21216;DHT22;10765;50.954;5.322;2022-09-20T03:16:47;12.10;44.70
21216;DHT22;10765;50.954;5.322;2022-09-20T03:19:23;12.10;99.90
21216;DHT22;10765;50.954;5.322;2022-09-20T03:22:10;12.20;99.90
21216;DHT22;10765;50.954;5.322;2022-09-20T03:24:49;12.20;92.50
21216;DHT22;10765;50.954;5.322;2022-09-20T03:27:24;12.00;41.90
21216;DHT22;10765;50.954;5.322;2022-09-20T03:30:03;12.00;99.90
21216;DHT22;10765;50.954;5.322;2022-09-20T03:32:47;11.90;1.00
21216;DHT22;10765;50.954;5.322;2022-09-20T03:35:38;11.80;1.00
21216;DHT22;10765;50.954;5.322;2022-09-20T03:38:19;11.80;1.00
21216;DHT22;10765;50.954;5.322;2022-09-20T03:44:21;11.90;1.00
21216;DHT22;10765;50.954;5.322;2022-09-20T03:47:00;11.90;1.00
21216;DHT22;10765;50.954;5.322;2022-09-20T03:49:47;11.90;99.90
21216;DHT22;10765;50.954;5.322;2022-09-20T03:52:28;12.00;99.90
21216;DHT22;10765;50.954;5.322;2022-09-20T03:58:15;12.20;1.00
21216;DHT22;10765;50.954;5.322;2022-09-20T04:00:59;12.20;1.00
21216;DHT22;10765;50.954;5.322;2022-09-20T04:03:41;12.20;1.00
21216;DHT22;10765;50.954;5.322;2022-09-20T04:09:34;12.30;1.00
21216;DHT22;10765;50.954;5.322;2022-09-20T04:12:09;12.30;1.00
21216;DHT22;10765;50.954;5.322;2022-09-20T04:14:44;12.20;1.00
21216;DHT22;10765;50.954;5.322;2022-09-20T04:17:24;12.10;99.90
21216;DHT22;10765;50.954;5.322;2022-09-20T04:20:00;12.20;99.90
21216;DHT22;10765;50.954;5.322;2022-09-20T04:22:28;12.20;59.90
21216;DHT22;10765;50.954;5.322;2022-09-20T04:24:59;12.20;99.90
21216;DHT22;10765;50.954;5.322;2022-09-20T04:27:32;12.30;1.00
21216;DHT22;10765;50.954;5.322;2022-09-20T04:30:04;12.20;1.00
21216;DHT22;10765;50.954;5.322;2022-09-20T04:32:38;12.20;1.00
21216;DHT22;10765;50.954;5.322;2022-09-20T04:35:13;12.10;99.90
21216;DHT22;10765;50.954;5.322;2022-09-20T04:38:02;12.00;99.90
21216;DHT22;10765;50.954;5.322;2022-09-20T04:40:48;12.00;1.00
21216;DHT22;10765;50.954;5.322;2022-09-20T04:43:43;12.00;99.90
21216;DHT22;10765;50.954;5.322;2022-09-20T04:46:35;12.00;99.90
21216;DHT22;10765;50.954;5.322;2022-09-20T04:49:39;12.00;99.90
21216;DHT22;10765;50.954;5.322;2022-09-20T04:55:48;11.90;99.90
21216;DHT22;10765;50.954;5.322;2022-09-20T04:58:34;11.90;99.90
21216;DHT22;10765;50.954;5.322;2022-09-20T05:13:42;11.90;12.70
21216;DHT22;10765;50.954;5.322;2022-09-20T05:16:20;11.90;99.90
21216;DHT22;10765;50.954;5.322;2022-09-20T05:19:12;11.90;99.90
21216;DHT22;10765;50.954;5.322;2022-09-20T05:25:15;12.10;99.90
21216;DHT22;10765;50.954;5.322;2022-09-20T05:27:53;12.00;99.90
21216;DHT22;10765;50.954;5.322;2022-09-20T05:30:29;12.00;1.00
21216;DHT22;10765;50.954;5.322;2022-09-20T05:33:04;12.10;1.00
21216;DHT22;10765;50.954;5.322;2022-09-20T05:35:39;12.10;1.00
21216;DHT22;10765;50.954;5.322;2022-09-20T05:38:13;12.30;99.90
21216;DHT22;10765;50.954;5.322;2022-09-20T05:41:05;12.20;1.00
21216;DHT22;10765;50.954;5.322;2022-09-20T05:43:38;12.30;1.00
21216;DHT22;10765;50.954;5.322;2022-09-20T05:46:15;12.20;1.00
21216;DHT22;10765;50.954;5.322;2022-09-20T05:48:53;12.20;1.00
21216;DHT22;10765;50.954;5.322;2022-09-20T05:51:34;12.20;27.50
21216;DHT22;10765;50.954;5.322;2022-09-20T05:54:23;12.20;99.90
21216;DHT22;10765;50.954;5.322;2022-09-20T05:57:01;12.10;1.00
21216;DHT22;10765;50.954;5.322;2022-09-20T05:59:43;12.20;1.00
21216;DHT22;10765;50.954;5.322;2022-09-20T06:02:23;12.30;1.00
21216;DHT22;10765;50.954;5.322;2022-09-20T06:05:00;12.40;1.00
21216;DHT22;10765;50.954;5.322;2022-09-20T06:07:42;12.40;1.00
21216;DHT22;10765;50.954;5.322;2022-09-20T06:10:35;12.30;58.80
21216;DHT22;10765;50.954;5.322;2022-09-20T06:16:14;12.10;99.90
21216;DHT22;10765;50.954;5.322;2022-09-20T06:18:46;12.00;99.90
21216;DHT22;10765;50.954;5.322;2022-09-20T06:21:23;12.00;1.00
21216;DHT22;10765;50.954;5.322;2022-09-20T06:23:58;12.00;1.00
21216;DHT22;10765;50.954;5.322;2022-09-20T06:26:28;12.00;99.90
21216;DHT22;10765;50.954;5.322;2022-09-20T06:29:01;12.10;99.90
21216;DHT22;10765;50.954;5.322;2022-09-20T06:31:29;12.20;99.90
21216;DHT22;10765;50.954;5.322;2022-09-20T06:33:59;12.80;1.00
21216;DHT22;10765;50.954;5.322;2022-09-20T06:36:30;13.70;99.90
21216;DHT22;10765;50.954;5.322;2022-09-20T06:39:23;14.60;3.40
21216;DHT22;10765;50.954;5.322;2022-09-20T06:42:09;15.50;1.00
21216;DHT22;10765;50.954;5.322;2022-09-20T06:44:37;15.50;55.10
21216;DHT22;10765;50.954;5.322;2022-09-20T06:47:05;15.30;99.90
21216;DHT22;10765;50.954;5.322;2022-09-20T06:49:33;15.30;82.70
21216;DHT22;10765;50.954;5.322;2022-09-20T06:52:01;15.10;11.90
21216;DHT22;10765;50.954;5.322;2022-09-20T06:54:29;15.00;99.90
21216;DHT22;10765;50.954;5.322;2022-09-20T06:56:56;14.80;99.90
21216;DHT22;10765;50.954;5.322;2022-09-20T06:59:24;14.70;99.90
21216;DHT22;10765;50.954;5.322;2022-09-20T07:01:52;14.70;99.90
21216;DHT22;10765;50.954;5.322;2022-09-20T07:04:19;14.60;99.90
21216;DHT22;10765;50.954;5.322;2022-09-20T07:06:51;14.30;99.90
21216;DHT22;10765;50.954;5.322;2022-09-20T07:09:18;14.10;1.00
21216;DHT22;10765;50.954;5.322;2022-09-20T07:11:45;14.30;1.00
21216;DHT22;10765;50.954;5.322;2022-09-20T07:14:12;14.30;1.00
21216;DHT22;10765;50.954;5.322;2022-09-20T07:16:40;14.10;1.00
21216;DHT22;10765;50.954;5.322;2022-09-20T07:19:08;14.00;1.00
21216;DHT22;10765;50.954;5.322;2022-09-20T07:21:35;14.20;1.00
21216;DHT22;10765;50.954;5.322;2022-09-20T07:24:02;14.20;1.00
21216;DHT22;10765;50.954;5.322;2022-09-20T07:26:29;14.20;1.00
21216;DHT22;10765;50.954;5.322;2022-09-20T07:28:57;14.10;30.80
21216;DHT22;10765;50.954;5.322;2022-09-20T07:31:26;14.20;1.00
21216;DHT22;10765;50.954;5.322;2022-09-20T07:33:53;14.00;1.00
21216;DHT22;10765;50.954;5.322;2022-09-20T07:36:21;13.70;99.90
21216;DHT22;10765;50.954;5.322;2022-09-20T07:38:50;13.70;1.00
21216;DHT22;10765;50.954;5.322;2022-09-20T07:41:18;13.60;86.80
21216;DHT22;10765;50.954;5.322;2022-09-20T07:43:45;13.60;1.00
21216;DHT22;10765;50.954;5.322;2022-09-20T07:46:12;13.60;99.90
21216;DHT22;10765;50.954;5.322;2022-09-20T07:48:40;13.60;99.90
21216;DHT22;10765;50.954;5.322;2022-09-20T07:51:08;13.50;1.00
21216;DHT22;10765;50.954;5.322;2022-09-20T07:53:38;13.30;99.90
21216;DHT22;10765;50.954;5.322;2022-09-20T07:56:08;13.30;1.00
21216;DHT22;10765;50.954;5.322;2022-09-20T07:58:36;13.40;99.90
21216;DHT22;10765;50.954;5.322;2022-09-20T08:01:04;13.40;99.90
21216;DHT22;10765;50.954;5.322;2022-09-20T08:03:32;13.40;1.00
21216;DHT22;10765;50.954;5.322;2022-09-20T08:06:00;13.50;1.00
21216;DHT22;10765;50.954;5.322;2022-09-20T08:08:27;13.60;99.90
21216;DHT22;10765;50.954;5.322;2022-09-20T08:11:02;13.50;99.90
21216;DHT22;10765;50.954;5.322;2022-09-20T08:13:31;13.40;1.00
21216;DHT22;10765;50.954;5.322;2022-09-20T08:16:01;13.40;99.90
21216;DHT22;10765;50.954;5.322;2022-09-20T08:18:28;13.50;1.00
21216;DHT22;10765;50.954;5.322;2022-09-20T08:20:55;13.70;99.90
21216;DHT22;10765;50.954;5.322;2022-09-20T08:23:22;13.80;99.90
21216;DHT22;10765;50.954;5.322;2022-09-20T08:25:49;13.80;1.00
21216;DHT22;10765;50.954;5.322;2022-09-20T08:28:17;13.80;99.90
21216;DHT22;10765;50.954;5.322;2022-09-20T08:30:44;13.80;99.90
21216;DHT22;10765;50.954;5.322;2022-09-20T08:33:11;13.80;1.00
21216;DHT22;10765;50.954;5.322;2022-09-20T08:35:38;13.80;1.00
21216;DHT22;10765;50.954;5.322;2022-09-20T08:38:05;13.90;99.90
21216;DHT22;10765;50.954;5.322;2022-09-20T08:40:32;14.10;99.90
21216;DHT22;10765;50.954;5.322;2022-09-20T08:43:00;14.20;1.00
21216;DHT22;10765;50.954;5.322;2022-09-20T08:45:29;14.50;99.90
21216;DHT22;10765;50.954;5.322;2022-09-20T08:47:59;14.60;30.00
21216;DHT22;10765;50.954;5.322;2022-09-20T08:50:27;14.50;69.10
21216;DHT22;10765;50.954;5.322;2022-09-20T08:52:56;14.80;1.00
21216;DHT22;10765;50.954;5.322;2022-09-20T08:55:29;14.80;99.90
21216;DHT22;10765;50.954;5.322;2022-09-20T08:57:57;15.30;99.90
21216;DHT22;10765;50.954;5.322;2022-09-20T09:00:29;15.80;75.90
21216;DHT22;10765;50.954;5.322;2022-09-20T09:02:59;16.20;1.00
21216;DHT22;10765;50.954;5.322;2022-09-20T09:05:32;16.20;1.00
21216;DHT22;10765;50.954;5.322;2022-09-20T09:08:01;16.50;1.00
21216;DHT22;10765;50.954;5.322;2022-09-20T09:10:33;17.00;1.00
21216;DHT22;10765;50.954;5.322;2022-09-20T09:13:02;17.20;1.00
21216;DHT22;10765;50.954;5.322;2022-09-20T09:15:33;17.70;1.00
21216;DHT22;10765;50.954;5.322;2022-09-20T09:18:01;17.90;1.00
21216;DHT22;10765;50.954;5.322;2022-09-20T09:20:28;19.20;1.00
21216;DHT22;10765;50.954;5.322;2022-09-20T09:23:00;21.30;99.90
21216;DHT22;10765;50.954;5.322;2022-09-20T09:25:27;22.40;99.90
21216;DHT22;10765;50.954;5.322;2022-09-20T09:27:58;21.70;99.90
21216;DHT22;10765;50.954;5.322;2022-09-20T09:30:29;20.80;99.90
21216;DHT22;10765;50.954;5.322;2022-09-20T09:33:22;20.40;99.90
21216;DHT22;10765;50.954;5.322;2022-09-20T09:35:57;20.00;99.90
21216;DHT22;10765;50.954;5.322;2022-09-20T09:38:27;19.70;99.90
21216;DHT22;10765;50.954;5.322;2022-09-20T09:40:55;20.10;99.90
21216;DHT22;10765;50.954;5.322;2022-09-20T09:43:25;22.00;99.90
21216;DHT22;10765;50.954;5.322;2022-09-20T09:45:56;22.00;99.90
21216;DHT22;10765;50.954;5.322;2022-09-20T09:48:43;23.70;99.90
21216;DHT22;10765;50.954;5.322;2022-09-20T09:51:16;27.10;99.90
21216;DHT22;10765;50.954;5.322;2022-09-20T09:53:44;28.10;99.90
21216;DHT22;10765;50.954;5.322;2022-09-20T09:56:23;26.90;99.90
21216;DHT22;10765;50.954;5.322;2022-09-20T09:59:15;24.50;99.90
21216;DHT22;10765;50.954;5.322;2022-09-20T10:01:51;22.40;99.90
21216;DHT22;10765;50.954;5.322;2022-09-20T10:04:25;21.90;99.90
21216;DHT22;10765;50.954;5.322;2022-09-20T10:07:08;21.90;99.90
21216;DHT22;10765;50.954;5.322;2022-09-20T10:09:56;22.00;99.90
21216;DHT22;10765;50.954;5.322;2022-09-20T10:12:41;21.00;99.90
21216;DHT22;10765;50.954;5.322;2022-09-20T10:15:27;21.40;99.90
21216;DHT22;10765;50.954;5.322;2022-09-20T10:18:11;21.80;99.90
21216;DHT22;10765;50.954;5.322;2022-09-20T10:21:05;21.70;99.90
21216;DHT22;10765;50.954;5.322;2022-09-20T10:23:50;21.40;99.90
21216;DHT22;10765;50.954;5.322;2022-09-20T10:26:30;21.50;99.90
21216;DHT22;10765;50.954;5.322;2022-09-20T10:29:07;21.60;99.90
21216;DHT22;10765;50.954;5.322;2022-09-20T10:31:46;21.50;99.90
21216;DHT22;10765;50.954;5.322;2022-09-20T10:34:48;21.70;99.90
21216;DHT22;10765;50.954;5.322;2022-09-20T10:37:25;21.40;99.90
21216;DHT22;10765;50.954;5.322;2022-09-20T10:40:02;22.50;99.90
21216;DHT22;10765;50.954;5.322;2022-09-20T10:42:37;26.00;99.90
21216;DHT22;10765;50.954;5.322;2022-09-20T10:45:30;27.70;99.90
21216;DHT22;10765;50.954;5.322;2022-09-20T10:48:03;29.70;99.90
21216;DHT22;10765;50.954;5.322;2022-09-20T10:50:38;30.20;99.90
21216;DHT22;10765;50.954;5.322;2022-09-20T10:53:24;30.20;99.90
21216;DHT22;10765;50.954;5.322;2022-09-20T10:56:06;31.50;99.90
21216;DHT22;10765;50.954;5.322;2022-09-20T10:58:55;29.40;99.90
21216;DHT22;10765;50.954;5.322;2022-09-20T11:01:33;32.20;99.90
21216;DHT22;10765;50.954;5.322;2022-09-20T11:04:23;33.80;99.90
21216;DHT22;10765;50.954;5.322;2022-09-20T11:07:00;34.70;99.90
21216;DHT22;10765;50.954;5.322;2022-09-20T11:09:36;35.50;99.90
21216;DHT22;10765;50.954;5.322;2022-09-20T11:12:09;29.80;99.90
21216;DHT22;10765;50.954;5.322;2022-09-20T11:14:41;27.30;99.90
21216;DHT22;10765;50.954;5.322;2022-09-20T11:17:15;30.10;99.90
21216;DHT22;10765;50.954;5.322;2022-09-20T11:19:49;32.50;99.90
21216;DHT22;10765;50.954;5.322;2022-09-20T11:22:20;30.60;99.90
21216;DHT22;10765;50.954;5.322;2022-09-20T11:24:52;31.40;99.90
21216;DHT22;10765;50.954;5.322;2022-09-20T11:27:23;30.40;99.90
21216;DHT22;10765;50.954;5.322;2022-09-20T11:29:58;28.50;99.90
21216;DHT22;10765;50.954;5.322;2022-09-20T11:32:31;26.20;99.90
21216;DHT22;10765;50.954;5.322;2022-09-20T11:35:05;24.50;99.90
21216;DHT22;10765;50.954;5.322;2022-09-20T11:37:44;23.60;99.90
21216;DHT22;10765;50.954;5.322;2022-09-20T11:40:21;26.00;99.90
21216;DHT22;10765;50.954;5.322;2022-09-20T11:42:50;29.60;99.90
21216;DHT22;10765;50.954;5.322;2022-09-20T11:45:18;32.00;99.90
21216;DHT22;10765;50.954;5.322;2022-09-20T11:47:48;33.40;99.90
21216;DHT22;10765;50.954;5.322;2022-09-20T11:50:45;34.00;99.90
21216;DHT22;10765;50.954;5.322;2022-09-20T11:53:22;33.50;99.90
21216;DHT22;10765;50.954;5.322;2022-09-20T11:55:58;33.90;99.90
21216;DHT22;10765;50.954;5.322;2022-09-20T11:58:27;31.50;99.90
21216;DHT22;10765;50.954;5.322;2022-09-20T12:00:57;27.50;99.90
21216;DHT22;10765;50.954;5.322;2022-09-20T12:03:30;25.20;99.90
21216;DHT22;10765;50.954;5.322;2022-09-20T12:06:00;24.10;99.90
21216;DHT22;10765;50.954;5.322;2022-09-20T12:08:29;23.10;99.90
21216;DHT22;10765;50.954;5.322;2022-09-20T12:11:02;21.80;99.90
21216;DHT22;10765;50.954;5.322;2022-09-20T12:13:32;20.70;99.90
21216;DHT22;10765;50.954;5.322;2022-09-20T12:16:03;20.30;99.90
21216;DHT22;10765;50.954;5.322;2022-09-20T12:18:59;19.80;99.90
21216;DHT22;10765;50.954;5.322;2022-09-20T12:21:26;19.50;99.90
21216;DHT22;10765;50.954;5.322;2022-09-20T12:24:19;19.10;99.90
21216;DHT22;10765;50.954;5.322;2022-09-20T12:26:50;19.10;99.90
21216;DHT22;10765;50.954;5.322;2022-09-20T12:32:49;18.30;99.90
21216;DHT22;10765;50.954;5.322;2022-09-20T12:38:34;17.90;99.90
21216;DHT22;10765;50.954;5.322;2022-09-20T12:41:09;17.80;99.90
21216;DHT22;10765;50.954;5.322;2022-09-20T12:43:47;18.00;99.90
21216;DHT22;10765;50.954;5.322;2022-09-20T12:46:25;17.90;99.90
21216;DHT22;10765;50.954;5.322;2022-09-20T12:49:17;18.10;99.90
21216;DHT22;10765;50.954;5.322;2022-09-20T12:52:26;18.20;99.90
21216;DHT22;10765;50.954;5.322;2022-09-20T12:55:32;18.20;99.90
21216;DHT22;10765;50.954;5.322;2022-09-20T12:58:01;18.40;99.90
21216;DHT22;10765;50.954;5.322;2022-09-20T13:00:37;18.20;99.90
21216;DHT22;10765;50.954;5.322;2022-09-20T13:03:12;18.00;99.90
21216;DHT22;10765;50.954;5.322;2022-09-20T13:05:50;17.90;99.90
21216;DHT22;10765;50.954;5.322;2022-09-20T13:08:41;17.60;1.00
21216;DHT22;10765;50.954;5.322;2022-09-20T13:11:13;17.30;1.00
21216;DHT22;10765;50.954;5.322;2022-09-20T13:13:43;17.20;1.00
21216;DHT22;10765;50.954;5.322;2022-09-20T13:16:26;17.00;1.00
21216;DHT22;10765;50.954;5.322;2022-09-20T13:19:00;17.20;1.00
21216;DHT22;10765;50.954;5.322;2022-09-20T13:21:30;17.30;1.00
21216;DHT22;10765;50.954;5.322;2022-09-20T13:23:59;17.20;1.00
21216;DHT22;10765;50.954;5.322;2022-09-20T13:26:29;16.80;1.00
21216;DHT22;10765;50.954;5.322;2022-09-20T13:28:58;16.70;1.00
21216;DHT22;10765;50.954;5.322;2022-09-20T13:31:30;16.60;1.00
21216;DHT22;10765;50.954;5.322;2022-09-20T13:34:18;16.60;1.00
21216;DHT22;10765;50.954;5.322;2022-09-20T13:36:46;16.50;1.00
21216;DHT22;10765;50.954;5.322;2022-09-20T13:39:28;16.70;1.00
21216;DHT22;10765;50.954;5.322;2022-09-20T13:42:00;16.70;1.00
21216;DHT22;10765;50.954;5.322;2022-09-20T13:44:32;16.80;1.00
21216;DHT22;10765;50.954;5.322;2022-09-20T13:46:59;16.90;1.00
21216;DHT22;10765;50.954;5.322;2022-09-20T13:49:30;17.00;1.00
21216;DHT22;10765;50.954;5.322;2022-09-20T13:51:57;17.20;1.00
21216;DHT22;10765;50.954;5.322;2022-09-20T13:54:28;17.40;1.00
21216;DHT22;10765;50.954;5.322;2022-09-20T13:56:57;17.60;1.00
21216;DHT22;10765;50.954;5.322;2022-09-20T13:59:32;17.60;1.00
21216;DHT22;10765;50.954;5.322;2022-09-20T14:02:00;17.50;1.00
21216;DHT22;10765;50.954;5.322;2022-09-20T14:04:29;17.40;1.00
21216;DHT22;10765;50.954;5.322;2022-09-20T14:06:58;17.20;1.00
21216;DHT22;10765;50.954;5.322;2022-09-20T14:09:29;17.10;1.00
21216;DHT22;10765;50.954;5.322;2022-09-20T14:11:58;17.10;1.00
21216;DHT22;10765;50.954;5.322;2022-09-20T14:14:25;17.10;1.00
21216;DHT22;10765;50.954;5.322;2022-09-20T14:16:55;17.10;1.00
21216;DHT22;10765;50.954;5.322;2022-09-20T14:19:28;17.20;1.00
21216;DHT22;10765;50.954;5.322;2022-09-20T14:21:56;17.10;1.00
21216;DHT22;10765;50.954;5.322;2022-09-20T14:24:28;17.10;1.00
21216;DHT22;10765;50.954;5.322;2022-09-20T14:27:11;16.90;1.00
21216;DHT22;10765;50.954;5.322;2022-09-20T14:29:41;16.70;1.00
21216;DHT22;10765;50.954;5.322;2022-09-20T14:32:30;16.60;1.00
21216;DHT22;10765;50.954;5.322;2022-09-20T14:35:02;16.50;1.00
21216;DHT22;10765;50.954;5.322;2022-09-20T14:37:31;16.70;1.00
21216;DHT22;10765;50.954;5.322;2022-09-20T14:40:02;16.90;1.00
21216;DHT22;10765;50.954;5.322;2022-09-20T14:42:34;17.00;1.00
21216;DHT22;10765;50.954;5.322;2022-09-20T14:45:04;17.00;1.00
21216;DHT22;10765;50.954;5.322;2022-09-20T14:47:36;17.00;1.00
21216;DHT22;10765;50.954;5.322;2022-09-20T14:50:17;16.90;1.00
21216;DHT22;10765;50.954;5.322;2022-09-20T14:52:59;17.00;1.00
21216;DHT22;10765;50.954;5.322;2022-09-20T14:55:27;17.10;1.00
21216;DHT22;10765;50.954;5.322;2022-09-20T14:58:00;17.40;1.00
21216;DHT22;10765;50.954;5.322;2022-09-20T15:00:28;17.60;1.00
21216;DHT22;10765;50.954;5.322;2022-09-20T15:03:02;17.80;1.00
21216;DHT22;10765;50.954;5.322;2022-09-20T15:05:30;17.90;1.00
21216;DHT22;10765;50.954;5.322;2022-09-20T15:07:57;18.10;1.00
21216;DHT22;10765;50.954;5.322;2022-09-20T15:10:24;18.20;1.00
21216;DHT22;10765;50.954;5.322;2022-09-20T15:12:53;18.30;99.90
21216;DHT22;10765;50.954;5.322;2022-09-20T15:15:20;18.10;1.00
21216;DHT22;10765;50.954;5.322;2022-09-20T15:17:47;17.80;1.00
21216;DHT22;10765;50.954;5.322;2022-09-20T15:20:16;17.80;1.00
21216;DHT22;10765;50.954;5.322;2022-09-20T15:22:44;17.70;1.00
21216;DHT22;10765;50.954;5.322;2022-09-20T15:25:13;17.70;1.00
21216;DHT22;10765;50.954;5.322;2022-09-20T15:27:41;17.60;1.00
21216;DHT22;10765;50.954;5.322;2022-09-20T15:30:13;17.80;1.00
21216;DHT22;10765;50.954;5.322;2022-09-20T15:32:41;17.90;1.00
21216;DHT22;10765;50.954;5.322;2022-09-20T15:35:08;17.90;1.00
21216;DHT22;10765;50.954;5.322;2022-09-20T15:37:35;18.00;1.00
21216;DHT22;10765;50.954;5.322;2022-09-20T15:40:03;17.80;1.00
21216;DHT22;10765;50.954;5.322;2022-09-20T15:42:32;17.70;1.00
21216;DHT22;10765;50.954;5.322;2022-09-20T15:45:05;17.50;1.00
21216;DHT22;10765;50.954;5.322;2022-09-20T15:47:35;17.60;1.00
21216;DHT22;10765;50.954;5.322;2022-09-20T15:50:03;17.40;1.00
21216;DHT22;10765;50.954;5.322;2022-09-20T15:52:34;17.40;1.00
21216;DHT22;10765;50.954;5.322;2022-09-20T15:55:03;17.50;1.00
21216;DHT22;10765;50.954;5.322;2022-09-20T15:57:30;17.60;1.00
21216;DHT22;10765;50.954;5.322;2022-09-20T15:59:57;17.50;1.00
21216;DHT22;10765;50.954;5.322;2022-09-20T16:02:25;17.50;1.00
21216;DHT22;10765;50.954;5.322;2022-09-20T16:04:55;17.60;1.00
21216;DHT22;10765;50.954;5.322;2022-09-20T16:07:24;17.60;1.00
21216;DHT22;10765;50.954;5.322;2022-09-20T16:09:51;17.60;1.00
21216;DHT22;10765;50.954;5.322;2022-09-20T16:12:19;17.60;1.00
21216;DHT22;10765;50.954;5.322;2022-09-20T16:14:45;17.50;1.00
21216;DHT22;10765;50.954;5.322;2022-09-20T16:17:13;17.40;1.00
21216;DHT22;10765;50.954;5.322;2022-09-20T16:19:40;17.40;1.00
21216;DHT22;10765;50.954;5.322;2022-09-20T16:22:08;17.20;1.00
21216;DHT22;10765;50.954;5.322;2022-09-20T16:24:37;16.90;1.00
21216;DHT22;10765;50.954;5.322;2022-09-20T16:27:05;16.80;1.00
21216;DHT22;10765;50.954;5.322;2022-09-20T16:29:33;16.60;1.00
21216;DHT22;10765;50.954;5.322;2022-09-20T16:32:01;16.60;1.00
21216;DHT22;10765;50.954;5.322;2022-09-20T16:34:31;16.60;1.00
21216;DHT22;10765;50.954;5.322;2022-09-20T16:36:59;16.60;1.00
21216;DHT22;10765;50.954;5.322;2022-09-20T16:39:29;16.40;1.00
21216;DHT22;10765;50.954;5.322;2022-09-20T16:41:58;16.30;1.00
21216;DHT22;10765;50.954;5.322;2022-09-20T16:44:29;16.10;1.00
21216;DHT22;10765;50.954;5.322;2022-09-20T16:46:56;15.80;1.00
21216;DHT22;10765;50.954;5.322;2022-09-20T16:49:23;15.70;1.00
21216;DHT22;10765;50.954;5.322;2022-09-20T16:51:51;15.50;1.00
21216;DHT22;10765;50.954;5.322;2022-09-20T16:54:18;15.50;1.00
21216;DHT22;10765;50.954;5.322;2022-09-20T16:56:47;15.50;1.00
21216;DHT22;10765;50.954;5.322;2022-09-20T16:59:15;15.40;1.00
21216;DHT22;10765;50.954;5.322;2022-09-20T17:01:43;15.40;1.00
21216;DHT22;10765;50.954;5.322;2022-09-20T17:04:11;15.30;1.00
21216;DHT22;10765;50.954;5.322;2022-09-20T17:06:39;15.30;1.00
21216;DHT22;10765;50.954;5.322;2022-09-20T17:09:08;15.30;1.00
21216;DHT22;10765;50.954;5.322;2022-09-20T17:11:37;15.20;1.00